x

Buoy E01 - Central Maine Shelf (44032) Wave Buoy

10:04 - Mon 21st Apr 2014 All times are EDT. -4 hours from GMT.

  • Sig Wave height 3.0ft
  • Peak Period 4s
  • Wind
    16mph, 20mph gusts
  • Sea Temp 40°f
  • Luft Temp 41°f
  • Sea Pressure 1020.4mb
  • Buoy E01 - Central Maine Shelf
  • Buoy E01 - Central Maine Shelf

More Historic Weather Station data

Upgrade to MSW Pro to gain access to the past 30 days of data for over 8000 Wavebouys and Weather Stations around the globe.

Join Pro

Comparision Forecast

View Surf forecast
   
Mo 04/21 10:04 3ft 4s 16 20 mph 1020.4mb 40f 41f
9:04 3ft 4s 16 20 mph 1021mb 40f 41f
8:04 3ft 5s 16 18 mph 1021.6mb 40f 41f
7:04 2.5ft 5s 18 20 mph 1022mb 40f 41f
6:04 2.5ft 4s 16 20 mph 1022.2mb 40f 40f
5:04 2.5ft 4s 13 16 mph 1022.5mb 40f 40f
4:04 2.5ft 4s 11 16 mph 1022.8mb 40f 40f
3:04 2.5ft 4s 11 13 mph 1023.6mb 40f 40f
2:04 2.5ft 4s 11 13 mph 1024.8mb 40f 40f
1:04 2.5ft 4s 11
mph
1025.9mb 40f 40f
12:04 2ft 4s 9 11 mph 1026.9mb 40f 40f
So 04/20 11:04 2.5ft 4s 11 13 mph 1027.5mb 40f 41f
10:04 2.5ft 4s 13 16 mph 1028mb 40f 41f
9:04 2.5ft 3s 11 13 mph 1028.7mb 40f 41f
8:04 1.6ft 3s 11 13 mph 1029mb 40f 40f
7:04 1.6ft 3s 11
mph
1029.2mb 40f 41f
6:04 2ft 3s 11 13 mph 1029.6mb 40f 41f
5:04 1.6ft 3s 13 16 mph 1030.3mb 41f 41f
4:04 1.3ft 3s 13 16 mph 1030.3mb 41f 41f
3:04 1.6ft 11s 13 16 mph 1030.7mb 41f 41f
2:04 1.6ft 8s 11 13 mph 1031.4mb 41f 41f
1:04 1.6ft 8s 9
mph
1031.4mb 41f 41f
12:04 2ft 8s 7 9 mph 1031.8mb 41f 40f
11:04 2.5ft 8s 7 9 mph 1032.4mb 40f 40f
10:04 1ft 2s 9 11 mph 1032.9mb 40f 40f
9:04 1.3ft 3s 16 18 mph 1032.2mb 40f 40f
8:04 1.3ft 3s 13 16 mph 1032.8mb 40f 39f
7:04 2.5ft 8s 16 18 mph 1032.1mb 40f 39f
6:04 3ft 8s 16 18 mph 1031.2mb 40f 39f
5:04  -   -  13
mph
1030.4mb 40f 40f
4:04 2ft 3s 13 18 mph 1029.8mb 40f 40f
3:04 3ft 11s 20 25 mph 1028.8mb 40f 40f
2:04 3ft 11s 9 11 mph 1029.3mb 40f 40f
1:04 3.5ft 11s 9 11 mph 1028.7mb 40f 42f
12:04 3.5ft 11s 7
mph
1028.4mb 40f 42f
Sa 04/19 11:04 3.5ft 11s 7 9 mph 1028.3mb 40f 41f
10:04  -   -  7
mph
1028mb 40f 42f
9:04 4.5ft 8s 16 18 mph 1026.9mb 40f 44f
8:04 4ft 8s 11 16 mph 1025.3mb 40f 44f
7:04 4.5ft 8s 18 20 mph 1024.1mb 40f 45f
6:04 4.5ft 11s 20 25 mph 1023.2mb 40f 46f
5:04  -   -  18 22 mph 1022.3mb 41f 47f
4:04  -   -  20 25 mph 1021.3mb 40f 46f
3:04 5ft 11s 20 25 mph 1020.6mb 40f 47f
2:04  -   -  18 20 mph 1020.3mb 40f 47f
1:04 4ft 11s 11 13 mph 1020.2mb 40f 43f
12:04 4.5ft 11s 9 11 mph 1020.3mb 40f 40f
11:04 4.5ft 11s 9 11 mph 1020.1mb 39f 39f
10:04 5.5ft 11s 11 13 mph 1020.2mb 39f 39f
9:04 5ft 11s 13 16 mph 1020.6mb 39f 39f
8:04 6ft 11s 11 16 mph 1020.3mb 39f 39f
7:04 5ft 11s 13 16 mph 1020.8mb 39f 39f
6:04 6ft 11s 11 13 mph 1020.3mb 39f 39f
5:04 5ft 11s 13 16 mph 1020.2mb 39f 38f
4:04 5.5ft 11s 13 18 mph 1020.6mb 40f 38f
3:04 4.5ft 8s 11 13 mph 1020.6mb 40f 38f
2:04  -   -  11 13 mph 1021.6mb 40f 39f
1:04 5ft 8s 11 13 mph 1023.1mb 40f 39f
12:04  -   -  11 16 mph 1023.6mb 40f 39f
Fr 04/18 11:04 5ft 8s 11 16 mph 1024.3mb 40f 38f
10:04 6ft 11s 7 9 mph 1025mb 40f 37f
9:04 5.5ft 11s 9 11 mph 1025.7mb 40f 37f
8:04 6.5ft 11s 7 11 mph 1025.6mb 40f 37f
7:04 7ft 8s 4 7 mph 1027.4mb 40f 37f
6:04 6ft 11s 4 7 mph 1027.6mb 40f 37f
5:04 7ft 8s 4 9 mph 1029mb 40f 37f
4:04 5.5ft 8s 7 9 mph 1029.9mb 40f 36f
3:04 4.5ft 8s 9 11 mph 1030.4mb 40f 37f
2:04 5ft 11s 7 9 mph 1031.6mb 40f 37f
1:04 4.5ft 11s 9 11 mph 1031.9mb 40f 37f
12:04 4.5ft 8s 9 11 mph 1034.3mb 40f 37f
11:04 5ft 11s 11 13 mph 1035.1mb 40f 37f
10:04 4.5ft 8s 13 16 mph 1034.8mb 39f 37f
9:04 4.5ft 8s 16 18 mph 1034.6mb 39f 37f
8:04 4ft 8s 16 18 mph 1034.7mb 39f 37f
7:04 4ft 8s 16 18 mph 1035.9mb 39f 36f
6:04 4ft 8s 11 13 mph 1036.9mb 39f 35f
5:04 2.5ft 8s 11 16 mph 1036.8mb 39f 35f
4:04 3ft 8s 11 16 mph 1037mb 39f 35f
3:04 3ft 6s 11 13 mph 1036.9mb 39f 37f
2:04 3ft 8s 4
mph
1037.1mb 39f 37f
1:04 3ft 6s 9
mph
1038mb 40f 37f
12:04 3.5ft 6s 9 11 mph 1038.7mb 40f 38f
Do 04/17 11:04 3.5ft 8s 11 13 mph 1039.7mb 39f 37f
10:04 3.5ft 11s 7 9 mph 1040.4mb 39f 37f
9:04 3.5ft 8s 7 9 mph 1040.9mb 39f 37f
8:04 4ft 11s 7 9 mph 1041mb 39f 36f
7:04 4.5ft 11s 11 13 mph 1041.2mb 39f 36f
6:04 3.5ft 6s 13 16 mph 1041.4mb 39f 36f
5:04 3ft 6s 11 13 mph 1041.6mb 40f 36f
4:04 2.5ft 6s 13 16 mph 1041.7mb 40f 35f